This is the latest recevied weather packets stored in our database for station/object KD2FKI. If no packets are shown the sender has not sent any weather packets the latest 10 day(s).
| Time | Temp. | Humidity | Pressure | Rain* | Wind** | Luminosity | Snow |
|---|---|---|---|---|---|---|---|
| 1788393920 | 25° C | 81% | - | 0 mm | - | - | - |
| 1788393319 | 25° C | 79% | - | 0 mm | - | - | - |
| 1788392735 | 25° C | 79% | - | 0 mm | - | - | - |
| 1788392132 | 25° C | 79% | - | 0 mm | - | - | - |
| 1788391530 | 25.56° C | 78% | - | 0 mm | - | - | - |
| 1788390929 | 25.56° C | 78% | - | 0 mm | - | - | - |
| 1788390326 | 25.56° C | 78% | - | 0 mm | - | - | - |
| 1788389726 | 25.56° C | 78% | - | 0 mm | - | - | - |
| 1788389123 | 25.56° C | 77% | - | 0 mm | - | - | - |
| 1788388521 | 26.11° C | 75% | - | 0 mm | - | - | - |
| 1788387936 | 26.67° C | 74% | - | 0 mm | - | - | - |
| 1788387332 | 26.67° C | 73% | - | 0 mm | - | - | - |
| 1788386731 | 26.67° C | 72% | - | 0 mm | - | - | - |
| 1788386128 | 27.22° C | 70% | - | 0 mm | - | - | - |
| 1788385526 | 27.22° C | 69% | - | 0 mm | - | - | - |
| 1788384923 | 26.67° C | 72% | - | 0 mm | - | - | - |
| 1788384323 | 26.67° C | 75% | - | 0 mm | - | - | - |
| 1788383719 | 26.11° C | 79% | - | 0 mm | - | - | - |
| 1788383135 | 25.56° C | 82% | - | 0 mm | - | - | - |
| 1788382533 | 25° C | 83% | - | 0 mm | - | - | - |
| 1788381931 | 24.44° C | 84% | - | 0 mm | - | - | - |
| 1788381331 | 24.44° C | 84% | - | 0 mm | - | - | - |
| 1788380726 | 24.44° C | 84% | - | 0 mm | - | - | - |
| 1788380124 | 24.44° C | 84% | - | 0 mm | - | - | - |
| 1788379521 | 24.44° C | 83% | - | 0 mm | - | - | - |
* Rain latest hour (hover to see other rain measurements)
** Current wind speed in m/s (hover to see current wind gust speed)